createdAt,value
2019-05-03T00:00:13.915Z,6.73
2019-05-03T00:02:55.854Z,6.97
2019-05-03T00:05:46.717Z,7.20
2019-05-03T00:08:16.001Z,7.47
2019-05-03T00:10:45.157Z,6.23
2019-05-03T00:13:14.169Z,7.47
2019-05-03T00:16:02.686Z,6.70
2019-05-03T00:18:32.820Z,8.00
2019-05-03T00:21:02.226Z,7.00
2019-05-03T00:23:32.405Z,8.07
2019-05-03T00:26:02.651Z,8.10
2019-05-03T00:28:32.279Z,7.80
2019-05-03T00:31:01.970Z,7.67
2019-05-03T00:33:31.762Z,8.13
2019-05-03T00:36:16.711Z,8.37
2019-05-03T00:38:46.351Z,7.73
2019-05-03T00:41:15.414Z,8.50
2019-05-03T00:43:44.274Z,8.47
2019-05-03T00:46:13.283Z,8.10
2019-05-03T00:48:43.507Z,9.90
2019-05-03T00:51:12.557Z,9.60
2019-05-03T00:53:42.429Z,8.97
2019-05-03T00:56:12.234Z,10.10
2019-05-03T00:58:52.951Z,10.00
2019-05-03T01:01:22.590Z,9.10
2019-05-03T01:03:52.676Z,9.93
2019-05-03T01:06:22.343Z,10.20
2019-05-03T01:08:52.261Z,9.97
2019-05-03T01:11:23.111Z,9.47
2019-05-03T01:13:52.401Z,10.03
2019-05-03T01:16:22.787Z,9.97
2019-05-03T01:18:52.301Z,10.00
2019-05-03T01:21:22.600Z,10.27
2019-05-03T01:23:52.515Z,10.47
2019-05-03T01:26:22.732Z,10.03
2019-05-03T01:28:52.289Z,10.90
2019-05-03T01:31:22.860Z,10.87
2019-05-03T01:33:52.082Z,9.97
2019-05-03T01:36:22.845Z,10.73
2019-05-03T01:38:52.923Z,10.77
2019-05-03T01:41:22.258Z,10.60
2019-05-03T01:43:52.577Z,10.77
2019-05-03T01:46:22.782Z,10.80
2019-05-03T01:49:12.276Z,10.30
2019-05-03T01:52:02.248Z,10.10
2019-05-03T01:54:32.127Z,10.40
2019-05-03T01:57:02.450Z,11.07
2019-05-03T01:59:32.194Z,10.27
2019-05-03T02:02:23.325Z,11.50
2019-05-03T02:05:08.017Z,10.57
2019-05-03T02:07:36.937Z,11.10
2019-05-03T02:10:06.739Z,10.53
2019-05-03T02:12:35.805Z,10.73
2019-05-03T02:15:04.973Z,11.43
2019-05-03T02:17:33.954Z,10.63
2019-05-03T02:20:03.031Z,10.93
2019-05-03T02:26:02.882Z,10.93
2019-05-03T02:28:32.660Z,11.50
2019-05-03T02:31:03.456Z,10.77
2019-05-03T02:33:33.017Z,11.00
2019-05-03T02:36:03.620Z,10.73
2019-05-03T02:38:33.752Z,10.13
2019-05-03T02:41:03.264Z,11.83
2019-05-03T02:43:40.161Z,10.43
2019-05-03T02:46:28.279Z,10.97
2019-05-03T02:49:16.703Z,10.40
2019-05-03T02:51:46.237Z,10.47
2019-05-03T02:54:15.772Z,11.47
2019-05-03T02:56:46.079Z,10.47
2019-05-03T02:59:16.055Z,10.67
2019-05-03T03:01:46.934Z,10.13
2019-05-03T03:04:16.081Z,9.87
2019-05-03T03:06:47.070Z,9.17
2019-05-03T03:09:19.291Z,10.00
2019-05-03T03:11:50.908Z,9.47
2019-05-03T03:14:22.224Z,10.00
2019-05-03T03:16:51.880Z,9.70
2019-05-03T03:19:26.177Z,10.20
2019-05-03T03:21:58.683Z,9.90
2019-05-03T03:24:29.865Z,10.07
2019-05-03T03:27:01.230Z,8.60
2019-05-03T03:29:31.232Z,9.23
2019-05-03T03:32:21.203Z,9.07
2019-05-03T03:35:03.152Z,9.03
2019-05-03T03:37:30.367Z,8.73
2019-05-03T03:39:59.386Z,8.67
2019-05-03T03:42:31.407Z,9.10
2019-05-03T03:45:01.971Z,8.57
2019-05-03T03:47:35.596Z,8.53
2019-05-03T03:50:05.992Z,8.27
2019-05-03T03:52:36.733Z,8.27
2019-05-03T03:55:06.582Z,7.73
2019-05-03T03:57:36.691Z,8.40
2019-05-03T04:00:08.260Z,7.10
2019-05-03T04:02:39.270Z,7.30
2019-05-03T04:05:09.573Z,7.40
2019-05-03T04:07:39.758Z,7.70
2019-05-03T04:10:09.415Z,7.00
2019-05-03T04:12:47.463Z,7.63
2019-05-03T04:15:37.132Z,7.43
2019-05-03T04:18:16.306Z,6.93
2019-05-03T04:20:47.850Z,6.87
2019-05-03T04:23:16.890Z,6.33
2019-05-03T04:25:46.180Z,6.60
2019-05-03T04:28:16.246Z,7.17
2019-05-03T04:30:46.062Z,6.83
2019-05-03T04:33:16.121Z,6.67
2019-05-03T04:35:46.552Z,7.60
2019-05-03T04:38:16.255Z,6.83
2019-05-03T04:40:45.709Z,6.40
2019-05-03T04:43:16.521Z,7.10
2019-05-03T04:45:49.803Z,6.93
2019-05-03T04:48:18.982Z,6.90
2019-05-03T04:50:47.841Z,7.27
2019-05-03T04:53:16.712Z,8.33
2019-05-03T04:55:46.851Z,7.03
2019-05-03T04:58:16.347Z,6.93
2019-05-03T05:00:46.531Z,6.50
2019-05-03T05:03:15.946Z,6.93
2019-05-03T05:05:45.630Z,6.27
2019-05-03T05:08:16.230Z,7.13
2019-05-03T05:10:45.669Z,7.43
2019-05-03T05:13:15.808Z,6.57
2019-05-03T05:15:45.947Z,6.20
2019-05-03T05:18:26.349Z,6.60
2019-05-03T05:21:06.178Z,7.17
2019-05-03T05:23:35.429Z,7.03
2019-05-03T05:26:11.468Z,6.70
2019-05-03T05:28:48.109Z,7.10
2019-05-03T05:31:17.161Z,7.50
2019-05-03T05:33:46.727Z,7.27
2019-05-03T05:36:15.877Z,6.63
2019-05-03T05:38:45.147Z,7.20
2019-05-03T05:41:15.635Z,6.77
2019-05-03T05:43:44.840Z,6.77
2019-05-03T05:46:14.631Z,7.20
2019-05-03T05:48:49.454Z,7.03
2019-05-03T05:51:18.447Z,6.83
2019-05-03T05:53:47.363Z,7.07
2019-05-03T05:56:37.886Z,6.70
2019-05-03T05:59:26.825Z,7.20
2019-05-03T06:02:02.320Z,7.37
2019-05-03T06:04:31.545Z,7.70
2019-05-03T06:07:18.630Z,7.10
2019-05-03T06:09:54.997Z,7.40
2019-05-03T06:12:30.242Z,7.70
2019-05-03T06:15:04.701Z,7.90
2019-05-03T06:17:38.663Z,8.10
2019-05-03T06:20:45.199Z,8.30
2019-05-03T06:23:21.538Z,7.00
2019-05-03T06:25:50.814Z,5.97
2019-05-03T06:28:30.800Z,6.13
2019-05-03T06:31:15.457Z,6.03
2019-05-03T06:33:45.101Z,5.23
2019-05-03T06:36:15.283Z,5.07
2019-05-03T06:38:44.771Z,5.67
2019-05-03T06:41:15.081Z,5.03
2019-05-03T06:43:48.393Z,5.80
2019-05-03T06:46:18.123Z,5.80
2019-05-03T06:48:45.711Z,5.87
2019-05-03T06:51:19.322Z,4.93
2019-05-03T06:53:47.563Z,5.20
2019-05-03T06:56:19.378Z,4.60
2019-05-03T06:58:46.886Z,4.03
2019-05-03T07:01:25.707Z,4.00
2019-05-03T07:03:58.728Z,3.53
2019-05-03T07:06:40.318Z,3.80
2019-05-03T07:09:35.292Z,3.80
2019-05-03T07:12:04.618Z,3.77
2019-05-03T07:14:34.923Z,3.63
2019-05-03T07:17:05.575Z,3.90
2019-05-03T07:19:35.406Z,3.93
2019-05-03T07:22:05.118Z,4.10
2019-05-03T07:24:37.642Z,4.17
2019-05-03T07:27:05.487Z,4.43
2019-05-03T07:29:36.507Z,3.43
2019-05-03T07:32:05.417Z,3.33
2019-05-03T07:34:35.143Z,3.77
2019-05-03T07:37:05.906Z,3.60
2019-05-03T07:39:35.105Z,3.50
2019-05-03T07:42:05.477Z,4.00
2019-05-03T07:44:34.991Z,3.93
2019-05-03T07:47:04.838Z,3.70
2019-05-03T07:49:35.691Z,3.40
2019-05-03T07:52:05.871Z,3.60
2019-05-03T07:54:35.334Z,3.90
2019-05-03T07:57:25.480Z,3.93
2019-05-03T07:59:55.658Z,3.00
2019-05-03T08:02:27.272Z,3.97
2019-05-03T08:04:56.072Z,3.73
2019-05-03T08:07:25.807Z,3.40
2019-05-03T08:09:55.533Z,4.50
2019-05-03T08:12:24.873Z,2.97
2019-05-03T08:14:55.149Z,3.17
2019-05-03T08:17:25.534Z,2.57
2019-05-03T08:19:55.219Z,2.50
2019-05-03T08:22:25.497Z,2.23
2019-05-03T08:24:55.475Z,2.80
2019-05-03T08:27:25.240Z,2.70
2019-05-03T08:29:55.716Z,2.50
2019-05-03T08:32:38.562Z,2.47
2019-05-03T08:35:15.258Z,2.43
2019-05-03T08:37:55.997Z,1.97
2019-05-03T08:40:27.868Z,2.23
2019-05-03T08:42:56.827Z,2.07
2019-05-03T08:45:25.969Z,1.50
2019-05-03T08:47:55.410Z,2.17
2019-05-03T08:50:25.673Z,1.83
2019-05-03T08:52:55.764Z,2.50
2019-05-03T08:55:25.146Z,3.10
2019-05-03T08:57:55.098Z,2.23
2019-05-03T09:00:26.063Z,2.27
2019-05-03T09:02:55.063Z,2.30
2019-05-03T09:05:25.095Z,2.00
2019-05-03T09:07:54.887Z,1.60
2019-05-03T09:10:39.298Z,2.17
2019-05-03T09:13:10.356Z,1.47
2019-05-03T09:15:39.994Z,1.60
2019-05-03T09:18:09.078Z,1.60
2019-05-03T09:20:38.412Z,1.60
2019-05-03T09:23:07.485Z,2.10
2019-05-03T09:25:36.799Z,2.13
2019-05-03T09:28:06.182Z,2.03
2019-05-03T09:30:35.823Z,1.80
2019-05-03T09:33:08.632Z,2.20
2019-05-03T09:35:36.260Z,2.03
2019-05-03T09:38:05.825Z,2.97
2019-05-03T09:40:35.402Z,2.00
2019-05-03T09:43:04.745Z,2.23
2019-05-03T09:45:35.272Z,2.60
2019-05-03T09:48:05.740Z,2.10
2019-05-03T09:50:35.943Z,1.80
2019-05-03T09:53:05.626Z,2.20
2019-05-03T09:55:38.382Z,1.83
2019-05-03T09:58:07.637Z,2.30
2019-05-03T10:00:36.651Z,2.00
2019-05-03T10:03:05.844Z,2.23
2019-05-03T10:05:35.255Z,2.47
2019-05-03T10:08:05.330Z,2.23
2019-05-03T10:10:52.118Z,1.90
2019-05-03T10:13:23.479Z,1.97
2019-05-03T10:15:51.969Z,2.50
2019-05-03T10:18:21.010Z,1.90
2019-05-03T10:20:50.308Z,2.20
2019-05-03T10:23:36.925Z,2.07
2019-05-03T10:26:06.222Z,2.37
2019-05-03T10:28:35.500Z,2.17
2019-05-03T10:31:07.480Z,1.97
2019-05-03T10:33:42.090Z,2.00
2019-05-03T10:36:11.044Z,2.27
2019-05-03T10:38:39.918Z,2.20
2019-05-03T10:41:08.957Z,2.30
2019-05-03T10:43:38.012Z,2.30
2019-05-03T10:46:07.197Z,2.60
2019-05-03T10:48:36.165Z,2.73
2019-05-03T10:51:05.256Z,2.50
2019-05-03T10:53:37.931Z,2.47
2019-05-03T10:56:23.132Z,2.40
2019-05-03T10:58:58.117Z,2.70
2019-05-03T11:01:37.661Z,3.00
2019-05-03T11:04:06.660Z,2.43
2019-05-03T11:06:35.605Z,2.67
2019-05-03T11:09:08.479Z,2.40
2019-05-03T11:11:37.440Z,2.17
2019-05-03T11:14:06.453Z,2.43
2019-05-03T11:16:35.537Z,2.30
2019-05-03T11:19:05.397Z,2.40
2019-05-03T11:21:34.961Z,2.30
2019-05-03T11:24:04.371Z,2.60
2019-05-03T11:26:34.968Z,2.33
2019-05-03T11:29:05.159Z,2.40
2019-05-03T11:31:52.445Z,2.73
2019-05-03T11:34:25.331Z,2.70
2019-05-03T11:37:14.559Z,2.70
2019-05-03T11:39:45.197Z,2.60
2019-05-03T11:42:15.597Z,3.03
2019-05-03T11:44:45.009Z,2.90
2019-05-03T11:47:15.048Z,2.57
2019-05-03T11:49:45.397Z,2.70
2019-05-03T11:52:15.904Z,3.07
2019-05-03T11:54:45.573Z,2.67
2019-05-03T11:57:21.858Z,3.00
2019-05-03T11:59:51.186Z,2.83
2019-05-03T12:02:39.306Z,2.90
2019-05-03T12:05:15.120Z,2.83
2019-05-03T12:07:45.522Z,2.93
2019-05-03T12:10:30.917Z,2.70
2019-05-03T12:12:47.855Z,3.00
2019-05-03T12:15:18.697Z,2.73
2019-05-03T12:17:54.138Z,2.80
2019-05-03T12:20:21.680Z,2.63
2019-05-03T12:22:51.371Z,2.90
2019-05-03T12:25:21.265Z,3.20
2019-05-03T12:27:50.729Z,3.27
2019-05-03T12:30:19.903Z,2.67
2019-05-03T12:32:49.202Z,2.43
2019-05-03T12:35:18.221Z,2.90
2019-05-03T12:37:47.206Z,2.47
2019-05-03T12:40:16.196Z,2.80
2019-05-03T12:42:45.613Z,2.70
2019-05-03T12:45:15.416Z,2.83
2019-05-03T12:47:45.317Z,2.60
2019-05-03T12:50:15.718Z,2.50
2019-05-03T12:52:50.267Z,3.07
2019-05-03T12:55:15.582Z,2.97
2019-05-03T12:57:45.768Z,2.83
2019-05-03T13:00:26.034Z,2.77
2019-05-03T13:02:59.443Z,3.20
2019-05-03T13:05:29.361Z,2.30
2019-05-03T13:08:22.019Z,2.60
2019-05-03T13:10:51.085Z,2.73
2019-05-03T13:13:20.273Z,3.20
2019-05-03T13:15:49.354Z,3.27
2019-05-03T13:18:18.362Z,3.17
2019-05-03T13:20:47.363Z,2.93
2019-05-03T13:23:16.649Z,3.00
2019-05-03T13:25:45.701Z,2.97
2019-05-03T13:28:15.319Z,3.10
2019-05-03T13:30:45.311Z,3.03
2019-05-03T13:33:15.233Z,3.30
2019-05-03T13:35:44.667Z,2.93
2019-05-03T13:38:13.800Z,3.17
2019-05-03T13:40:45.150Z,2.97
2019-05-03T13:43:15.035Z,2.90
2019-05-03T13:45:45.046Z,3.20
2019-05-03T13:48:15.552Z,4.83
2019-05-03T13:50:45.217Z,3.27
2019-05-03T13:53:16.170Z,3.33
2019-05-03T13:55:44.953Z,2.90
2019-05-03T13:58:14.698Z,3.27
2019-05-03T14:00:45.386Z,2.90
2019-05-03T14:03:15.284Z,3.30
2019-05-03T14:05:44.672Z,3.20
2019-05-03T14:08:15.633Z,3.60
2019-05-03T14:10:45.539Z,3.60
2019-05-03T14:13:14.809Z,3.13
2019-05-03T14:15:45.302Z,3.00
2019-05-03T14:18:15.324Z,3.20
2019-05-03T14:21:05.004Z,3.13
2019-05-03T14:23:52.363Z,3.20
2019-05-03T14:26:21.743Z,3.70
2019-05-03T14:28:50.878Z,3.20
2019-05-03T14:31:19.966Z,3.37
2019-05-03T14:33:48.874Z,3.07
2019-05-03T14:36:17.869Z,3.33
2019-05-03T14:38:47.145Z,3.27
2019-05-03T14:41:16.112Z,3.30
2019-05-03T14:43:45.099Z,3.33
2019-05-03T14:46:16.303Z,3.27
2019-05-03T14:48:45.779Z,3.17
2019-05-03T14:51:14.844Z,3.00
2019-05-03T14:53:45.317Z,3.73
2019-05-03T14:56:22.340Z,4.43
2019-05-03T14:59:19.715Z,3.37
2019-05-03T15:01:55.441Z,3.20
2019-05-03T15:04:25.499Z,3.40
2019-05-03T15:06:54.929Z,3.13
2019-05-03T15:09:25.564Z,3.27
2019-05-03T15:11:54.748Z,3.20
2019-05-03T15:14:25.119Z,3.07
2019-05-03T15:16:55.732Z,2.97
2019-05-03T15:19:25.358Z,4.27
2019-05-03T15:21:54.863Z,3.47
2019-05-03T15:24:25.219Z,3.20
2019-05-03T15:26:55.358Z,3.60
2019-05-03T15:29:24.803Z,3.37
2019-05-03T15:31:55.250Z,3.40
2019-05-03T15:34:24.606Z,3.47
2019-05-03T15:36:54.642Z,4.00
2019-05-03T15:39:23.781Z,3.23
2019-05-03T15:41:54.358Z,3.50
2019-05-03T15:44:41.368Z,3.50
2019-05-03T15:47:18.114Z,3.17
2019-05-03T15:49:50.117Z,2.90
2019-05-03T15:52:22.148Z,3.67
2019-05-03T15:54:51.289Z,3.63
2019-05-03T15:57:20.304Z,3.40
2019-05-03T15:59:49.257Z,3.77
2019-05-03T16:02:18.214Z,3.53
2019-05-03T16:04:47.298Z,3.70
2019-05-03T16:07:16.320Z,4.50
2019-05-03T16:09:45.497Z,3.67
2019-05-03T16:12:14.780Z,3.93
2019-05-03T16:14:44.565Z,4.23
2019-05-03T16:17:14.751Z,4.03
2019-05-03T16:19:47.388Z,3.80
2019-05-03T16:22:14.961Z,4.57
2019-05-03T16:24:44.812Z,4.07
2019-05-03T16:27:42.795Z,4.00
2019-05-03T16:30:28.507Z,4.30
2019-05-03T16:32:57.509Z,3.63
2019-05-03T16:35:26.483Z,3.37
2019-05-03T16:37:55.569Z,3.73
2019-05-03T16:40:25.240Z,3.67
2019-05-03T16:42:54.338Z,4.20
2019-05-03T16:45:25.597Z,4.03
2019-05-03T16:47:54.687Z,4.10
2019-05-03T16:50:25.045Z,4.20
2019-05-03T16:52:55.013Z,4.17
2019-05-03T16:55:25.647Z,4.50
2019-05-03T16:57:55.022Z,5.40
2019-05-03T17:00:25.070Z,4.87
2019-05-03T17:02:55.082Z,4.53
2019-05-03T17:05:42.249Z,4.80
2019-05-03T17:08:25.480Z,4.33
2019-05-03T17:10:57.077Z,4.33
2019-05-03T17:13:26.530Z,4.70
2019-05-03T17:15:55.564Z,4.40
2019-05-03T17:18:24.752Z,3.93
2019-05-03T17:20:54.773Z,4.57
2019-05-03T17:23:24.635Z,4.53
2019-05-03T17:25:53.690Z,4.00
2019-05-03T17:28:24.717Z,5.60
2019-05-03T17:30:55.278Z,4.60
2019-05-03T17:33:25.327Z,4.40
2019-05-03T17:35:56.322Z,4.40
2019-05-03T17:38:31.356Z,4.90
2019-05-03T17:41:09.822Z,4.90
2019-05-03T17:43:48.842Z,4.67
2019-05-03T17:46:17.861Z,4.90
2019-05-03T17:48:46.949Z,4.90
2019-05-03T17:51:55.489Z,4.90
2019-05-03T17:54:44.848Z,4.67
2019-05-03T17:57:20.896Z,4.97
2019-05-03T17:59:55.014Z,4.70
2019-05-03T18:02:30.601Z,5.60
2019-05-03T18:05:18.650Z,5.30
2019-05-03T18:08:13.384Z,5.47
2019-05-03T18:10:45.126Z,5.37
2019-05-03T18:13:14.407Z,5.20
2019-05-03T18:15:44.914Z,5.70
2019-05-03T18:18:15.731Z,5.27
2019-05-03T18:20:45.051Z,5.73
2019-05-03T18:23:15.382Z,5.80
2019-05-03T18:25:44.758Z,5.57
2019-05-03T18:31:09.742Z,5.40
2019-05-03T18:33:41.156Z,5.37
2019-05-03T18:36:10.220Z,5.20
2019-05-03T18:38:39.866Z,5.23
2019-05-03T18:41:09.988Z,5.90
2019-05-03T18:43:57.228Z,5.13
2019-05-03T18:46:29.325Z,4.73
2019-05-03T18:48:58.299Z,4.70
2019-05-03T18:51:27.350Z,4.47
2019-05-03T18:53:59.634Z,4.63
2019-05-03T18:56:28.890Z,5.03
2019-05-03T18:58:57.838Z,4.67
2019-05-03T19:01:26.985Z,4.67
2019-05-03T19:04:02.123Z,4.00
2019-05-03T19:06:31.068Z,4.63
2019-05-03T19:09:25.414Z,4.73
2019-05-03T19:12:11.537Z,4.23
2019-05-03T19:14:40.962Z,5.67
2019-05-03T19:17:25.916Z,5.53
2019-05-03T19:19:55.288Z,5.57
2019-05-03T19:22:24.962Z,5.63
2019-05-03T19:24:54.183Z,5.20
2019-05-03T19:27:25.106Z,4.57
2019-05-03T19:29:55.467Z,4.27
2019-05-03T19:32:28.042Z,4.93
2019-05-03T19:34:56.283Z,4.70
2019-05-03T19:37:25.772Z,4.70
2019-05-03T19:39:55.392Z,4.30
2019-05-03T19:42:27.216Z,4.73
2019-05-03T19:44:55.431Z,4.87
2019-05-03T19:47:25.154Z,4.87
2019-05-03T19:49:54.810Z,4.57
2019-05-03T19:52:27.677Z,4.37
2019-05-03T19:54:56.764Z,4.57
2019-05-03T19:57:30.843Z,4.87
2019-05-03T19:59:59.888Z,5.27
2019-05-03T20:02:46.835Z,5.30
2019-05-03T20:05:34.514Z,5.03
2019-05-03T20:08:25.997Z,5.13
2019-05-03T20:11:14.649Z,5.83
2019-05-03T20:13:45.175Z,5.57
2019-05-03T20:16:15.321Z,5.90
2019-05-03T20:18:45.609Z,5.60
2019-05-03T20:21:15.228Z,6.07
2019-05-03T20:23:47.048Z,6.23
2019-05-03T20:26:16.174Z,6.73
2019-05-03T20:28:45.277Z,6.93
2019-05-03T20:31:14.551Z,7.93
2019-05-03T20:33:45.565Z,8.40
2019-05-03T20:36:14.891Z,7.27
2019-05-03T20:38:44.495Z,6.87
2019-05-03T20:41:14.830Z,8.00
2019-05-03T20:43:55.042Z,7.67
2019-05-03T20:46:34.203Z,8.67
2019-05-03T20:49:06.228Z,8.17
2019-05-03T20:51:35.200Z,8.30
2019-05-03T20:54:04.856Z,7.53
2019-05-03T20:56:34.462Z,7.63
2019-05-03T20:59:05.334Z,8.23
2019-05-03T21:01:34.776Z,7.93
2019-05-03T21:04:04.824Z,8.13
2019-05-03T21:06:35.859Z,12.33
2019-05-03T21:09:06.894Z,7.83
2019-05-03T21:11:36.924Z,7.67
2019-05-03T21:14:05.924Z,8.53
2019-05-03T21:16:58.633Z,7.80
2019-05-03T21:19:38.398Z,6.87
2019-05-03T21:22:26.256Z,7.63
2019-05-03T21:25:21.985Z,8.40
2019-05-03T21:27:51.056Z,8.47
2019-05-03T21:30:19.988Z,7.57
2019-05-03T21:32:49.236Z,8.70
2019-05-03T21:35:20.563Z,8.50
2019-05-03T21:37:48.955Z,8.27
2019-05-03T21:40:17.963Z,8.33
2019-05-03T21:42:46.988Z,8.77
2019-05-03T21:45:24.667Z,8.43
2019-05-03T21:48:14.641Z,9.03
2019-05-03T21:50:44.661Z,8.33
2019-05-03T21:53:14.755Z,8.63
2019-05-03T21:55:44.770Z,9.40
2019-05-03T21:58:16.118Z,8.50
2019-05-03T22:00:54.721Z,9.33
2019-05-03T22:03:25.247Z,8.73
2019-05-03T22:05:57.359Z,9.07
2019-05-03T22:08:25.124Z,10.20
2019-05-03T22:10:55.446Z,10.23
2019-05-03T22:13:24.773Z,8.90
2019-05-03T22:16:04.942Z,10.27
2019-05-03T22:18:35.103Z,9.50
2019-05-03T22:21:18.415Z,10.10
2019-05-03T22:23:58.278Z,9.47
2019-05-03T22:26:47.978Z,9.70
2019-05-03T22:29:17.436Z,9.47
2019-05-03T22:31:46.434Z,10.50
2019-05-03T22:34:15.464Z,9.93
2019-05-03T22:36:44.559Z,9.73
2019-05-03T22:39:15.635Z,10.83
2019-05-03T22:41:44.318Z,10.20
2019-05-03T22:44:16.804Z,10.77
2019-05-03T22:46:44.605Z,9.80
2019-05-03T22:49:15.588Z,9.60
2019-05-03T22:51:45.222Z,10.07
2019-05-03T22:54:15.434Z,10.20
2019-05-03T22:56:44.930Z,10.83
2019-05-03T22:59:15.647Z,9.93
2019-05-03T23:01:47.486Z,10.73
2019-05-03T23:04:18.282Z,10.50
2019-05-03T23:06:47.529Z,10.13
2019-05-03T23:09:16.589Z,10.17
2019-05-03T23:11:45.847Z,11.43
2019-05-03T23:14:15.255Z,11.50
2019-05-03T23:16:44.991Z,10.87
2019-05-03T23:19:14.978Z,11.70
2019-05-03T23:21:56.490Z,10.47
2019-05-03T23:24:25.565Z,10.63
2019-05-03T23:26:54.813Z,10.77
2019-05-03T23:29:23.714Z,11.50
2019-05-03T23:31:52.672Z,11.13
2019-05-03T23:34:21.704Z,12.10
2019-05-03T23:36:51.045Z,11.97
2019-05-03T23:39:20.123Z,11.13
2019-05-03T23:41:49.131Z,9.90
2019-05-03T23:44:18.186Z,8.47
2019-05-03T23:46:54.707Z,8.47
2019-05-03T23:49:25.036Z,8.90
2019-05-03T23:51:56.603Z,8.63
2019-05-03T23:54:25.646Z,8.03
2019-05-03T23:56:54.780Z,8.33
2019-05-03T23:59:24.105Z,9.00
